createdAt,value
2018-12-04T00:00:52.476Z,7.20
2018-12-04T00:03:21.163Z,7.20
2018-12-04T00:05:49.767Z,7.20
2018-12-04T00:08:18.398Z,7.20
2018-12-04T00:10:47.232Z,7.20
2018-12-04T00:13:15.872Z,7.10
2018-12-04T00:15:44.502Z,7.20
2018-12-04T00:18:13.173Z,7.10
2018-12-04T00:20:41.832Z,7.10
2018-12-04T00:23:10.451Z,7.10
2018-12-04T00:25:39.089Z,7.00
2018-12-04T00:28:07.631Z,7.10
2018-12-04T00:30:36.272Z,7.00
2018-12-04T00:33:04.966Z,7.00
2018-12-04T00:35:33.635Z,6.90
2018-12-04T00:38:02.272Z,6.90
2018-12-04T00:40:30.935Z,6.90
2018-12-04T00:42:59.652Z,6.90
2018-12-04T00:45:28.282Z,6.80
2018-12-04T00:47:56.907Z,6.80
2018-12-04T00:50:25.603Z,6.80
2018-12-04T00:52:54.256Z,6.80
2018-12-04T00:55:23.052Z,6.80
2018-12-04T00:57:51.689Z,6.80
2018-12-04T01:00:20.311Z,6.80
2018-12-04T01:02:54.570Z,6.90
2018-12-04T01:05:23.212Z,6.90
2018-12-04T01:07:51.847Z,6.90
2018-12-04T01:10:20.529Z,6.90
2018-12-04T01:12:49.098Z,6.90
2018-12-04T01:15:17.754Z,6.90
2018-12-04T01:17:46.487Z,6.90
2018-12-04T01:20:15.140Z,7.00
2018-12-04T01:22:43.763Z,7.00
2018-12-04T01:25:12.423Z,7.00
2018-12-04T01:27:41.223Z,7.00
2018-12-04T01:30:10.064Z,7.00
2018-12-04T01:32:38.740Z,7.00
2018-12-04T01:35:07.467Z,7.10
2018-12-04T01:37:36.101Z,7.10
2018-12-04T01:40:05.660Z,7.10
2018-12-04T01:42:34.362Z,7.10
2018-12-04T01:45:03.267Z,7.10
2018-12-04T01:47:31.891Z,7.10
2018-12-04T01:50:00.515Z,7.10
2018-12-04T01:52:29.155Z,7.10
2018-12-04T01:54:57.820Z,7.20
2018-12-04T01:57:26.564Z,7.20
2018-12-04T01:59:55.170Z,7.20
2018-12-04T02:02:23.816Z,7.20
2018-12-04T02:04:52.503Z,7.20
2018-12-04T02:07:21.115Z,7.10
2018-12-04T02:09:50.308Z,7.20
2018-12-04T02:12:18.983Z,7.10
2018-12-04T02:14:47.591Z,7.20
2018-12-04T02:17:16.440Z,7.20
2018-12-04T02:19:45.061Z,7.10
2018-12-04T02:22:13.723Z,7.10
2018-12-04T02:24:43.444Z,7.10
2018-12-04T02:27:12.037Z,7.10
2018-12-04T02:29:40.642Z,7.10
2018-12-04T02:32:09.297Z,7.10
2018-12-04T02:34:37.953Z,7.10
2018-12-04T02:37:06.595Z,7.10
2018-12-04T02:39:35.347Z,7.10
2018-12-04T02:42:04.017Z,7.10
2018-12-04T02:44:32.630Z,7.10
2018-12-04T02:47:01.286Z,7.00
2018-12-04T02:49:29.874Z,7.10
2018-12-04T02:51:58.630Z,7.00
2018-12-04T02:54:27.241Z,7.00
2018-12-04T02:56:55.930Z,7.00
2018-12-04T02:59:24.593Z,6.90
2018-12-04T03:01:53.220Z,6.90
2018-12-04T03:04:21.863Z,6.90
2018-12-04T03:06:50.554Z,6.90
2018-12-04T03:09:19.176Z,6.80
2018-12-04T03:11:47.825Z,6.80
2018-12-04T03:14:16.479Z,6.80
2018-12-04T03:16:45.143Z,6.70
2018-12-04T03:19:13.794Z,6.60
2018-12-04T03:21:42.409Z,6.50
2018-12-04T03:24:11.007Z,6.50
2018-12-04T03:26:39.636Z,6.40
2018-12-04T03:29:08.304Z,6.40
2018-12-04T03:31:36.928Z,6.30
2018-12-04T03:34:05.584Z,6.20
2018-12-04T03:36:34.207Z,6.20
2018-12-04T03:39:02.901Z,6.10
2018-12-04T03:41:31.516Z,6.00
2018-12-04T03:44:00.297Z,6.00
2018-12-04T03:46:28.921Z,5.90
2018-12-04T03:48:57.564Z,5.90
2018-12-04T03:51:26.204Z,5.80
2018-12-04T03:53:54.927Z,5.80
2018-12-04T03:56:23.596Z,5.80
2018-12-04T03:58:52.425Z,5.70
2018-12-04T04:01:21.193Z,5.70
2018-12-04T04:03:49.880Z,5.70
2018-12-04T04:06:18.616Z,5.60
2018-12-04T04:08:47.261Z,5.60
2018-12-04T04:11:15.905Z,5.60
2018-12-04T04:13:44.611Z,5.50
2018-12-04T04:16:13.264Z,5.50
2018-12-04T04:18:41.911Z,5.40
2018-12-04T04:21:10.612Z,5.40
2018-12-04T04:23:39.260Z,5.40
2018-12-04T04:26:07.888Z,5.40
2018-12-04T04:28:36.556Z,5.30
2018-12-04T04:31:05.169Z,5.20
2018-12-04T04:33:33.804Z,5.20
2018-12-04T04:36:02.595Z,5.10
2018-12-04T04:38:31.233Z,5.10
2018-12-04T04:40:59.839Z,5.10
2018-12-04T04:43:28.529Z,5.00
2018-12-04T04:45:57.285Z,4.90
2018-12-04T04:48:25.943Z,4.90
2018-12-04T04:50:54.567Z,4.80
2018-12-04T04:53:23.251Z,4.80
2018-12-04T04:55:51.950Z,4.70
2018-12-04T04:58:20.718Z,4.60
2018-12-04T05:00:49.367Z,4.60
2018-12-04T05:03:18.010Z,4.60
2018-12-04T05:05:46.634Z,4.60
2018-12-04T05:08:15.314Z,4.60
2018-12-04T05:10:43.953Z,4.60
2018-12-04T05:13:12.607Z,4.60
2018-12-04T05:15:41.260Z,4.60
2018-12-04T05:18:09.873Z,4.60
2018-12-04T05:20:38.512Z,4.60
2018-12-04T05:23:07.099Z,4.50
2018-12-04T05:25:35.768Z,4.50
2018-12-04T05:28:04.371Z,4.50
2018-12-04T05:30:33.060Z,4.50
2018-12-04T05:33:01.659Z,4.40
2018-12-04T05:35:30.263Z,4.40
2018-12-04T05:37:58.922Z,4.40
2018-12-04T05:40:27.626Z,4.40
2018-12-04T05:42:56.240Z,4.50
2018-12-04T05:45:24.859Z,4.40
2018-12-04T05:47:53.543Z,4.50
2018-12-04T05:50:22.278Z,4.40
2018-12-04T05:53:02.044Z,4.40
2018-12-04T05:55:30.604Z,4.40
2018-12-04T05:57:59.281Z,4.40
2018-12-04T06:00:27.903Z,4.30
2018-12-04T06:02:56.766Z,4.30
2018-12-04T06:05:25.424Z,4.30
2018-12-04T06:07:54.115Z,4.30
2018-12-04T06:10:22.787Z,4.20
2018-12-04T06:12:51.443Z,4.20
2018-12-04T06:15:20.168Z,4.20
2018-12-04T06:17:48.821Z,4.20
2018-12-04T06:20:17.490Z,4.20
2018-12-04T06:22:46.133Z,4.20
2018-12-04T06:25:14.788Z,4.20
2018-12-04T06:27:43.445Z,4.20
2018-12-04T06:30:12.100Z,4.20
2018-12-04T06:32:40.823Z,4.20
2018-12-04T06:35:09.464Z,4.20
2018-12-04T06:37:38.095Z,4.10
2018-12-04T06:40:07.199Z,4.10
2018-12-04T06:42:35.878Z,4.10
2018-12-04T06:45:05.241Z,4.10
2018-12-04T06:47:33.845Z,4.00
2018-12-04T06:50:02.489Z,4.00
2018-12-04T06:52:31.155Z,4.00
2018-12-04T06:54:59.788Z,4.00
2018-12-04T06:57:28.418Z,3.90
2018-12-04T06:59:57.016Z,3.90
2018-12-04T07:02:25.693Z,3.90
2018-12-04T07:04:54.279Z,3.90
2018-12-04T07:07:22.882Z,3.80
2018-12-04T07:09:51.598Z,3.70
2018-12-04T07:12:20.314Z,3.70
2018-12-04T07:14:48.917Z,3.70
2018-12-04T07:17:18.537Z,3.70
2018-12-04T07:19:47.359Z,3.70
2018-12-04T07:22:15.956Z,3.70
2018-12-04T07:24:44.593Z,3.60
2018-12-04T07:27:13.234Z,3.60
2018-12-04T07:29:41.881Z,3.60
2018-12-04T07:32:10.499Z,3.50
2018-12-04T07:34:39.200Z,3.50
2018-12-04T07:37:07.823Z,3.50
2018-12-04T07:39:36.495Z,3.50
2018-12-04T07:42:05.184Z,3.50
2018-12-04T07:44:34.772Z,3.50
2018-12-04T07:47:03.555Z,3.50
2018-12-04T07:49:32.183Z,3.40
2018-12-04T07:52:00.803Z,3.40
2018-12-04T07:54:29.436Z,3.50
2018-12-04T07:56:58.099Z,3.50
2018-12-04T07:59:26.796Z,3.40
2018-12-04T08:01:55.571Z,3.40
2018-12-04T08:04:24.255Z,3.50
2018-12-04T08:06:52.914Z,3.50
2018-12-04T08:09:21.599Z,3.50
2018-12-04T08:11:50.324Z,3.50
2018-12-04T08:14:19.000Z,3.50
2018-12-04T08:16:47.609Z,3.60
2018-12-04T08:19:16.306Z,3.60
2018-12-04T08:21:44.999Z,3.60
2018-12-04T08:24:13.646Z,3.60
2018-12-04T08:26:43.256Z,3.60
2018-12-04T08:29:11.891Z,3.70
2018-12-04T08:31:40.445Z,3.70
2018-12-04T08:34:09.123Z,3.70
2018-12-04T08:36:37.716Z,3.70
2018-12-04T08:39:13.093Z,3.70
2018-12-04T08:41:38.848Z,3.70
2018-12-04T08:44:07.478Z,3.80
2018-12-04T08:46:36.112Z,3.80
2018-12-04T08:49:04.747Z,3.90
2018-12-04T08:51:33.474Z,3.90
2018-12-04T08:54:02.075Z,3.90
2018-12-04T08:56:30.676Z,3.90
2018-12-04T08:58:59.328Z,4.00
2018-12-04T09:01:27.950Z,4.10
2018-12-04T09:03:59.177Z,4.20
2018-12-04T09:06:29.698Z,4.20
2018-12-04T09:08:58.355Z,4.30
2018-12-04T09:11:26.992Z,4.30
2018-12-04T09:13:55.716Z,4.40
2018-12-04T09:16:24.307Z,4.40
2018-12-04T09:18:52.934Z,4.50
2018-12-04T09:21:21.687Z,4.50
2018-12-04T09:23:50.496Z,4.60
2018-12-04T09:26:19.223Z,4.70
2018-12-04T09:28:47.965Z,4.70
2018-12-04T09:31:16.713Z,4.70
2018-12-04T09:33:45.295Z,4.80
2018-12-04T09:36:14.171Z,4.90
2018-12-04T09:38:42.776Z,4.90
2018-12-04T09:41:11.466Z,5.00
2018-12-04T09:43:40.126Z,5.00
2018-12-04T09:46:08.777Z,5.00
2018-12-04T09:48:37.449Z,5.10
2018-12-04T09:51:06.211Z,5.20
2018-12-04T09:53:34.852Z,5.30
2018-12-04T09:56:03.610Z,5.30
2018-12-04T09:58:32.280Z,5.40
2018-12-04T10:01:00.883Z,5.50
2018-12-04T10:03:29.512Z,5.60
2018-12-04T10:05:58.216Z,5.60
2018-12-04T10:08:26.793Z,5.70
2018-12-04T10:10:55.400Z,5.70
2018-12-04T10:13:24.173Z,5.80
2018-12-04T10:15:52.846Z,5.80
2018-12-04T10:18:21.467Z,5.90
2018-12-04T10:20:50.256Z,5.90
2018-12-04T10:23:18.849Z,6.00
2018-12-04T10:25:50.235Z,5.90
2018-12-04T10:28:19.733Z,6.00
2018-12-04T10:30:53.763Z,6.10
2018-12-04T10:33:22.392Z,6.10
2018-12-04T10:35:50.967Z,6.10
2018-12-04T10:38:19.641Z,6.20
2018-12-04T10:40:48.259Z,6.20
2018-12-04T10:43:16.901Z,6.20
2018-12-04T10:45:45.597Z,6.30
2018-12-04T10:48:14.364Z,6.30
2018-12-04T10:50:42.963Z,6.30
2018-12-04T10:53:11.556Z,6.40
2018-12-04T10:55:40.230Z,6.40
2018-12-04T10:58:08.892Z,6.40
2018-12-04T11:00:42.698Z,6.50
2018-12-04T11:03:12.533Z,6.50
2018-12-04T11:05:42.294Z,6.50
2018-12-04T11:08:10.929Z,6.60
2018-12-04T11:10:39.547Z,6.60
2018-12-04T11:13:08.290Z,6.60
2018-12-04T11:15:36.905Z,6.60
2018-12-04T11:18:05.786Z,6.70
2018-12-04T11:20:34.416Z,6.70
2018-12-04T11:23:03.231Z,6.70
2018-12-04T11:25:31.882Z,6.70
2018-12-04T11:28:00.544Z,6.80
2018-12-04T11:30:29.223Z,6.90
2018-12-04T11:32:57.843Z,6.80
2018-12-04T11:35:26.457Z,6.90
2018-12-04T11:37:55.085Z,7.00
2018-12-04T11:40:24.165Z,7.00
2018-12-04T11:42:52.783Z,7.00
2018-12-04T11:45:21.564Z,7.00
2018-12-04T11:47:50.213Z,7.00
2018-12-04T11:50:18.835Z,7.00
2018-12-04T11:52:47.593Z,7.00
2018-12-04T11:55:16.171Z,7.00
2018-12-04T11:57:44.754Z,7.00
2018-12-04T12:00:19.947Z,7.10
2018-12-04T12:02:48.593Z,7.00
2018-12-04T12:05:17.167Z,7.10
2018-12-04T12:07:45.822Z,7.10
2018-12-04T12:10:14.475Z,7.10
2018-12-04T12:12:43.083Z,7.20
2018-12-04T12:15:17.719Z,7.20
2018-12-04T12:17:42.521Z,7.10
2018-12-04T12:20:11.661Z,7.10
2018-12-04T12:22:40.316Z,7.20
2018-12-04T12:25:08.952Z,7.20
2018-12-04T12:27:37.546Z,7.20
2018-12-04T12:30:08.459Z,7.20
2018-12-04T12:32:37.217Z,7.20
2018-12-04T12:35:07.459Z,7.10
2018-12-04T12:37:36.121Z,7.10
2018-12-04T12:40:06.307Z,7.10
2018-12-04T12:42:34.986Z,7.10
2018-12-04T12:45:03.941Z,7.00
2018-12-04T12:47:32.734Z,7.10
2018-12-04T12:50:01.337Z,7.10
2018-12-04T12:52:29.948Z,7.10
2018-12-04T12:54:58.667Z,7.10
2018-12-04T12:57:27.380Z,7.10
2018-12-04T12:59:56.013Z,7.00
2018-12-04T13:02:24.831Z,7.10
2018-12-04T13:04:53.521Z,7.10
2018-12-04T13:07:22.441Z,7.10
2018-12-04T13:09:51.694Z,7.10
2018-12-04T13:12:20.362Z,7.10
2018-12-04T13:14:48.979Z,7.20
2018-12-04T13:17:17.628Z,7.20
2018-12-04T13:19:46.227Z,7.10
2018-12-04T13:22:14.904Z,7.20
2018-12-04T13:24:43.637Z,7.30
2018-12-04T13:27:12.424Z,7.30
2018-12-04T13:29:41.032Z,7.30
2018-12-04T13:32:09.661Z,7.30
2018-12-04T13:34:38.277Z,7.30
2018-12-04T13:37:06.956Z,7.30
2018-12-04T13:39:35.619Z,7.20
2018-12-04T13:42:04.284Z,7.20
2018-12-04T13:44:32.967Z,7.30
2018-12-04T13:47:01.613Z,7.20
2018-12-04T13:49:30.325Z,7.30
2018-12-04T13:51:59.127Z,7.20
2018-12-04T13:54:27.777Z,7.20
2018-12-04T13:56:56.378Z,7.20
2018-12-04T13:59:25.006Z,7.10
2018-12-04T14:01:53.732Z,7.10
2018-12-04T14:04:22.492Z,7.10
2018-12-04T14:06:51.105Z,7.10
2018-12-04T14:09:19.757Z,7.00
2018-12-04T14:11:48.451Z,6.90
2018-12-04T14:14:17.115Z,6.80
2018-12-04T14:16:45.765Z,6.80
2018-12-04T14:19:14.428Z,6.90
2018-12-04T14:21:43.153Z,6.90
2018-12-04T14:24:11.752Z,6.90
2018-12-04T14:26:40.351Z,6.90
2018-12-04T14:29:09.133Z,6.90
2018-12-04T14:31:37.747Z,6.80
2018-12-04T14:34:06.400Z,6.70
2018-12-04T14:36:35.068Z,6.60
2018-12-04T14:39:05.303Z,6.60
2018-12-04T14:41:34.018Z,6.50
2018-12-04T14:44:02.812Z,6.50
2018-12-04T14:46:31.437Z,6.40
2018-12-04T14:49:00.138Z,6.30
2018-12-04T14:51:28.882Z,6.10
2018-12-04T14:53:57.691Z,6.00
2018-12-04T14:56:26.411Z,5.90
2018-12-04T14:58:55.018Z,5.80
2018-12-04T15:01:23.679Z,5.70
2018-12-04T15:03:52.318Z,5.60
2018-12-04T15:06:20.957Z,5.50
2018-12-04T15:08:49.577Z,5.30
2018-12-04T15:11:18.325Z,5.20
2018-12-04T15:13:47.098Z,5.10
2018-12-04T15:16:15.788Z,5.00
2018-12-04T15:18:44.480Z,4.90
2018-12-04T15:21:13.208Z,4.90
2018-12-04T15:23:41.880Z,4.80
2018-12-04T15:26:10.659Z,4.80
2018-12-04T15:28:39.340Z,4.70
2018-12-04T15:31:08.116Z,4.60
2018-12-04T15:33:36.970Z,4.50
2018-12-04T15:36:05.622Z,4.50
2018-12-04T15:38:34.283Z,4.40
2018-12-04T15:41:02.917Z,4.30
2018-12-04T15:43:31.700Z,4.20
2018-12-04T15:46:00.424Z,4.20
2018-12-04T15:48:29.105Z,4.10
2018-12-04T15:51:00.083Z,4.00
2018-12-04T15:53:29.612Z,3.90
2018-12-04T15:55:58.414Z,3.80
2018-12-04T15:58:27.137Z,3.70
2018-12-04T16:00:55.849Z,3.60
2018-12-04T16:03:24.461Z,3.50
2018-12-04T16:05:53.076Z,3.40
2018-12-04T16:08:21.716Z,3.30
2018-12-04T16:10:50.344Z,3.30
2018-12-04T16:13:19.085Z,3.20
2018-12-04T16:15:47.866Z,3.10
2018-12-04T16:18:16.629Z,3.00
2018-12-04T16:20:45.274Z,2.90
2018-12-04T16:23:14.335Z,2.80
2018-12-04T16:25:43.018Z,2.80
2018-12-04T16:28:11.669Z,2.70
2018-12-04T16:30:40.404Z,2.70
2018-12-04T16:33:09.075Z,2.60
2018-12-04T16:35:37.689Z,2.60
2018-12-04T16:38:06.443Z,2.50
2018-12-04T16:40:35.147Z,2.50
2018-12-04T16:43:03.801Z,2.50
2018-12-04T16:45:32.484Z,2.40
2018-12-04T16:48:01.218Z,2.40
2018-12-04T16:50:29.909Z,2.40
2018-12-04T16:52:58.791Z,2.40
2018-12-04T16:55:27.520Z,2.40
2018-12-04T16:57:56.226Z,2.40
2018-12-04T17:00:24.956Z,2.40
2018-12-04T17:02:53.800Z,2.30
2018-12-04T17:05:22.556Z,2.20
2018-12-04T17:07:51.180Z,2.20
2018-12-04T17:10:22.549Z,2.10
2018-12-04T17:12:50.586Z,2.00
2018-12-04T17:15:19.259Z,1.90
2018-12-04T17:17:47.941Z,1.90
2018-12-04T17:20:16.759Z,1.90
2018-12-04T17:22:45.391Z,1.80
2018-12-04T17:25:14.017Z,1.80
2018-12-04T17:27:42.702Z,1.80
2018-12-04T17:30:11.824Z,1.80
2018-12-04T17:32:40.706Z,1.80
2018-12-04T17:35:09.579Z,1.80
2018-12-04T17:37:38.401Z,1.80
2018-12-04T17:40:07.701Z,1.70
2018-12-04T17:42:36.462Z,1.70
2018-12-04T17:45:06.095Z,1.70
2018-12-04T17:47:34.778Z,1.70
2018-12-04T17:50:03.703Z,1.60
2018-12-04T17:52:32.344Z,1.60
2018-12-04T17:55:01.023Z,1.50
2018-12-04T17:57:29.655Z,1.50
2018-12-04T17:59:58.292Z,1.50
2018-12-04T18:02:26.967Z,1.40
2018-12-04T18:04:55.583Z,1.40
2018-12-04T18:07:24.225Z,1.30
2018-12-04T18:09:52.894Z,1.30
2018-12-04T18:12:21.663Z,1.30
2018-12-04T18:14:50.339Z,1.30
2018-12-04T18:17:19.013Z,1.30
2018-12-04T18:19:47.781Z,1.30
2018-12-04T18:22:16.423Z,1.20
2018-12-04T18:24:45.213Z,1.20
2018-12-04T18:27:13.824Z,1.20
2018-12-04T18:29:42.554Z,1.10
2018-12-04T18:32:11.221Z,1.10
2018-12-04T18:34:39.878Z,1.00
2018-12-04T18:37:08.547Z,1.00
2018-12-04T18:39:37.489Z,1.00
2018-12-04T18:42:06.343Z,1.00
2018-12-04T18:44:34.963Z,0.90
2018-12-04T18:47:03.639Z,1.00
2018-12-04T18:49:32.290Z,0.90
2018-12-04T18:52:00.939Z,0.90
2018-12-04T18:54:29.705Z,0.80
2018-12-04T18:56:58.473Z,0.70
2018-12-04T18:59:27.068Z,0.70
2018-12-04T19:01:55.675Z,0.60
2018-12-04T19:04:24.300Z,0.60
2018-12-04T19:06:52.964Z,0.60
2018-12-04T19:09:21.647Z,0.60
2018-12-04T19:11:50.401Z,0.60
2018-12-04T19:14:19.082Z,0.50
2018-12-04T19:16:47.898Z,0.40
2018-12-04T19:19:17.058Z,0.40
2018-12-04T19:21:45.720Z,0.40
2018-12-04T19:24:14.394Z,0.40
2018-12-04T19:26:43.097Z,0.40
2018-12-04T19:29:11.801Z,0.40
2018-12-04T19:31:40.624Z,0.40
2018-12-04T19:34:09.460Z,0.40
2018-12-04T19:36:38.156Z,0.40
2018-12-04T19:39:08.684Z,0.40
2018-12-04T19:41:37.554Z,0.40
2018-12-04T19:44:06.338Z,0.50
2018-12-04T19:46:34.986Z,0.40
2018-12-04T19:49:03.803Z,0.40
2018-12-04T19:51:32.570Z,0.40
2018-12-04T19:54:01.785Z,0.50
2018-12-04T19:56:30.489Z,0.40
2018-12-04T19:58:59.138Z,0.40
2018-12-04T20:01:27.862Z,0.40
2018-12-04T20:03:56.512Z,0.40
2018-12-04T20:06:25.098Z,0.40
2018-12-04T20:08:57.155Z,0.40
2018-12-04T20:11:25.837Z,0.40
2018-12-04T20:13:54.619Z,0.40
2018-12-04T20:16:23.435Z,0.40
2018-12-04T20:18:52.084Z,0.40
2018-12-04T20:21:20.878Z,0.40
2018-12-04T20:23:49.655Z,0.40
2018-12-04T20:26:18.517Z,0.40
2018-12-04T20:28:47.156Z,0.40
2018-12-04T20:31:15.816Z,0.40
2018-12-04T20:33:44.585Z,0.40
2018-12-04T20:36:13.223Z,0.40
2018-12-04T20:38:42.408Z,0.50
2018-12-04T20:41:11.032Z,0.50
2018-12-04T20:43:39.781Z,0.50
2018-12-04T20:46:08.882Z,0.50
2018-12-04T20:48:37.523Z,0.50
2018-12-04T20:51:06.175Z,0.50
2018-12-04T20:53:34.956Z,0.50
2018-12-04T20:56:03.677Z,0.60
2018-12-04T20:58:32.350Z,0.60
2018-12-04T21:01:01.071Z,0.60
2018-12-04T21:03:29.838Z,0.60
2018-12-04T21:05:58.484Z,0.70
2018-12-04T21:08:27.124Z,0.70
2018-12-04T21:10:55.903Z,0.80
2018-12-04T21:13:24.584Z,0.70
2018-12-04T21:15:53.179Z,0.80
2018-12-04T21:18:21.820Z,0.70
2018-12-04T21:20:50.471Z,0.70
2018-12-04T21:23:19.167Z,0.70
2018-12-04T21:25:47.866Z,0.70
2018-12-04T21:28:22.656Z,0.70
2018-12-04T21:30:57.192Z,0.70
2018-12-04T21:33:31.089Z,0.60
2018-12-04T21:36:05.068Z,0.60
2018-12-04T21:38:38.968Z,0.60
2018-12-04T21:41:12.991Z,0.60
2018-12-04T21:43:46.904Z,0.50
2018-12-04T21:46:21.049Z,0.50
2018-12-04T21:48:49.730Z,0.50
2018-12-04T21:51:18.388Z,0.50
2018-12-04T21:53:47.038Z,0.40
2018-12-04T21:56:15.740Z,0.40
2018-12-04T21:58:44.417Z,0.30
2018-12-04T22:01:13.039Z,0.30
2018-12-04T22:03:41.909Z,0.30
2018-12-04T22:06:10.559Z,0.30
2018-12-04T22:08:39.257Z,0.20
2018-12-04T22:11:07.900Z,0.20
2018-12-04T22:13:36.536Z,0.10
2018-12-04T22:16:05.189Z,0.10
2018-12-04T22:18:33.847Z,0.10
2018-12-04T22:21:02.488Z,0.10
2018-12-04T22:23:31.129Z,0.10
2018-12-04T22:25:59.731Z,0.10
2018-12-04T22:28:28.361Z,0.10
2018-12-04T22:30:56.969Z,0.10
2018-12-04T22:33:25.633Z,0.10
2018-12-04T22:35:54.268Z,0.10
2018-12-04T22:38:22.902Z,0.00
2018-12-04T22:40:51.557Z,0.00
2018-12-04T22:43:20.191Z,-0.10
2018-12-04T22:45:48.835Z,-0.10
2018-12-04T22:48:17.474Z,-0.20
2018-12-04T22:50:46.110Z,-0.20
2018-12-04T22:53:14.857Z,-0.30
2018-12-04T22:55:43.653Z,-0.30
2018-12-04T22:58:12.292Z,-0.30
2018-12-04T23:00:43.003Z,-0.30
2018-12-04T23:03:11.933Z,-0.30
2018-12-04T23:05:40.644Z,-0.30
2018-12-04T23:08:09.238Z,-0.40
2018-12-04T23:10:37.898Z,-0.40
2018-12-04T23:13:06.775Z,-0.30
2018-12-04T23:15:35.519Z,-0.30
2018-12-04T23:18:04.412Z,-0.40
2018-12-04T23:20:33.139Z,-0.40
2018-12-04T23:23:01.789Z,-0.40
2018-12-04T23:25:30.475Z,-0.40
2018-12-04T23:27:59.121Z,-0.40
2018-12-04T23:30:27.795Z,-0.30
2018-12-04T23:32:56.472Z,-0.30
2018-12-04T23:35:25.227Z,-0.30
2018-12-04T23:37:53.952Z,-0.30
2018-12-04T23:40:22.652Z,-0.30
2018-12-04T23:42:51.247Z,-0.30
2018-12-04T23:45:19.902Z,-0.30
2018-12-04T23:47:48.588Z,-0.20
2018-12-04T23:50:17.210Z,-0.20
2018-12-04T23:52:45.825Z,-0.10
2018-12-04T23:55:14.486Z,-0.10
2018-12-04T23:57:43.134Z,-0.10
